Time;durP1;ratioP1;P1;durP2;ratioP2;P2;SDS_P1;SDS_P2;PMS_P1;PMS_P2;Temp;Humidity;BMP_temperature;BMP_pressure;BME280_temperature;BME280_humidity;BME280_pressure;Samples;Min_cycle;Max_cycle;Signal;HPM_P1;HPM_P2
2023/11/12 00:01:27;;;;;;;12.13;6.20;;;;;;;;;;5117096;28;20258;-28
2023/11/12 00:03:53;;;;;;;9.82;6.28;;;;;;;;;;5116355;28;20253;-26
2023/11/12 00:06:18;;;;;;;9.88;5.88;;;;;;;;;;5116421;28;20050;-28
2023/11/12 00:08:44;;;;;;;12.55;6.38;;;;;;;;;;5116457;28;20023;-28
2023/11/12 00:11:09;;;;;;;11.98;6.20;;;;;;;;;;5116589;28;20369;-28
2023/11/12 00:13:34;;;;;;;12.10;6.37;;;;;;;;;;5116596;28;20470;-32
2023/11/12 00:15:59;;;;;;;10.95;5.93;;;;;;;;;;5116564;28;20304;-27
2023/11/12 00:18:24;;;;;;;14.68;6.72;;;;;;;;;;5116487;28;20045;-28
2023/11/12 00:20:53;;;;;;;12.17;6.77;;;;;;;;;;5116192;28;20115;-28
2023/11/12 00:23:20;;;;;;;14.93;6.55;;;;;;;;;;5116125;28;20360;-28
2023/11/12 00:25:45;;;;;;;14.95;6.60;;;;;;;;;;5116230;28;20090;-28
2023/11/12 00:28:11;;;;;;;11.77;6.68;;;;;;;;;;5116082;28;20054;-28
2023/11/12 00:30:36;;;;;;;10.25;6.28;;;;;;;;;;5116045;28;20058;-27
2023/11/12 00:33:01;;;;;;;13.23;5.93;;;;;;;;;;5116163;28;20043;-28
2023/11/12 00:35:26;;;;;;;10.23;5.80;;;;;;;;;;5116250;28;20020;-28
2023/11/12 00:37:53;;;;;;;12.20;6.47;;;;;;;;;;5115863;28;20023;-28
2023/11/12 00:40:18;;;;;;;9.85;5.90;;;;;;;;;;5116378;28;20257;-28
2023/11/12 00:42:43;;;;;;;11.70;6.43;;;;;;;;;;5116270;28;20027;-28
2023/11/12 00:45:09;;;;;;;10.32;6.15;;;;;;;;;;5116176;28;20016;-27
2023/11/12 00:47:34;;;;;;;15.45;6.60;;;;;;;;;;5115955;28;20015;-28
2023/11/12 00:49:59;;;;;;;11.60;6.50;;;;;;;;;;5115622;28;20015;-28
2023/11/12 00:52:24;;;;;;;10.75;6.40;;;;;;;;;;5115827;28;20374;-28
2023/11/12 00:54:49;;;;;;;10.13;6.30;;;;;;;;;;5114765;28;20020;-27
2023/11/12 00:57:14;;;;;;;12.17;6.93;;;;;;;;;;5115415;28;20811;-28
2023/11/12 00:59:40;;;;;;;14.20;7.80;;;;;;;;;;5116027;28;20253;-28
2023/11/12 01:02:05;;;;;;;14.80;7.97;;;;;;;;;;5115389;28;20755;-28
2023/11/12 01:04:30;;;;;;;15.65;8.57;;;;;;;;;;5115224;28;20321;-27
2023/11/12 01:06:55;;;;;;;13.07;8.00;;;;;;;;;;5115347;28;20019;-28
2023/11/12 01:09:20;;;;;;;14.70;8.03;;;;;;;;;;5115201;28;20286;-28
2023/11/12 01:11:46;;;;;;;14.82;7.07;;;;;;;;;;5115410;28;20261;-27
2023/11/12 01:14:11;;;;;;;16.40;7.15;;;;;;;;;;5115474;28;20489;-28
2023/11/12 01:16:37;;;;;;;12.98;6.32;;;;;;;;;;5115119;28;20035;-28
2023/11/12 01:19:02;;;;;;;14.02;6.57;;;;;;;;;;5115366;28;20378;-28
2023/11/12 01:21:28;;;;;;;12.38;6.90;;;;;;;;;;5115016;28;20029;-28
2023/11/12 01:23:53;;;;;;;11.17;6.80;;;;;;;;;;5114945;28;20069;-28
2023/11/12 01:26:18;;;;;;;14.07;7.17;;;;;;;;;;5114949;28;20337;-27
2023/11/12 01:28:43;;;;;;;11.25;7.03;;;;;;;;;;5115108;28;20777;-28
2023/11/12 01:31:08;;;;;;;15.67;7.70;;;;;;;;;;5115378;28;20031;-28
2023/11/12 01:33:34;;;;;;;13.73;7.93;;;;;;;;;;5114825;28;20261;-28
2023/11/12 01:36:00;;;;;;;16.52;8.13;;;;;;;;;;5114468;28;20289;-27
2023/11/12 01:38:25;;;;;;;15.65;8.18;;;;;;;;;;5114239;28;20524;-28
2023/11/12 01:40:51;;;;;;;17.60;8.38;;;;;;;;;;5114406;28;20027;-27
2023/11/12 01:43:16;;;;;;;12.68;7.55;;;;;;;;;;5114376;28;20024;-28
2023/11/12 01:45:43;;;;;;;16.85;7.40;;;;;;;;;;5113488;28;20023;-28
2023/11/12 01:48:08;;;;;;;12.90;7.72;;;;;;;;;;5113759;28;20007;-28
2023/11/12 01:50:34;;;;;;;13.45;7.45;;;;;;;;;;5114331;28;20024;-28
2023/11/12 01:53:00;;;;;;;15.38;7.47;;;;;;;;;;5114581;28;20048;-28
2023/11/12 01:55:25;;;;;;;13.70;8.00;;;;;;;;;;5114662;28;20015;-28
2023/11/12 01:57:52;;;;;;;17.73;8.68;;;;;;;;;;5114576;28;20065;-28
2023/11/12 02:00:18;;;;;;;17.95;8.60;;;;;;;;;;5114238;28;20073;-28
2023/11/12 02:02:44;;;;;;;17.92;9.48;;;;;;;;;;5114506;28;20031;-28
2023/11/12 02:05:09;;;;;;;15.48;9.18;;;;;;;;;;5114241;28;20468;-28
2023/11/12 02:07:36;;;;;;;18.95;9.05;;;;;;;;;;5114109;28;20304;-28
2023/11/12 02:10:09;;;;;;;19.00;9.20;;;;;;;;;;5114066;28;20023;-27
2023/11/12 02:12:35;;;;;;;17.58;8.88;;;;;;;;;;5114056;28;20016;-28
2023/11/12 02:15:00;;;;;;;16.80;8.50;;;;;;;;;;5114042;28;20026;-27
2023/11/12 02:17:26;;;;;;;15.15;8.77;;;;;;;;;;5114109;28;20047;-28
2023/11/12 02:19:51;;;;;;;15.55;8.40;;;;;;;;;;5114247;28;20098;-28
2023/11/12 02:22:16;;;;;;;18.35;8.80;;;;;;;;;;5114052;28;20212;-27
2023/11/12 02:24:42;;;;;;;13.60;8.30;;;;;;;;;;5113909;28;20027;-28
2023/11/12 02:27:08;;;;;;;13.48;7.97;;;;;;;;;;5113917;28;20020;-27
2023/11/12 02:29:33;;;;;;;15.55;8.68;;;;;;;;;;5113868;28;20048;-28
2023/11/12 02:31:59;;;;;;;13.87;8.47;;;;;;;;;;5114428;28;20109;-28
2023/11/12 02:34:24;;;;;;;19.33;8.57;;;;;;;;;;5113858;28;20257;-27
2023/11/12 02:36:50;;;;;;;18.33;9.17;;;;;;;;;;5114069;28;20102;-28
2023/11/12 02:39:15;;;;;;;18.60;9.75;;;;;;;;;;5113798;28;20276;-28
2023/11/12 02:41:41;;;;;;;16.40;9.02;;;;;;;;;;5114842;28;20015;-27
2023/11/12 02:44:09;;;;;;;18.85;9.75;;;;;;;;;;5113997;28;20068;-28
2023/11/12 02:46:35;;;;;;;18.70;9.77;;;;;;;;;;5114009;28;20053;-28
2023/11/12 02:49:09;;;;;;;17.33;10.25;;;;;;;;;;5113693;28;20038;-28
2023/11/12 02:51:34;;;;;;;15.65;9.38;;;;;;;;;;5114297;28;20068;-28
2023/11/12 02:54:00;;;;;;;21.07;10.60;;;;;;;;;;5113486;28;20385;-27
2023/11/12 02:56:25;;;;;;;17.30;9.90;;;;;;;;;;5114265;28;20249;-27
2023/11/12 02:58:51;;;;;;;20.55;9.57;;;;;;;;;;5113916;28;20260;-28
2023/11/12 03:01:17;;;;;;;16.25;9.35;;;;;;;;;;5113991;28;20016;-28
2023/11/12 03:03:42;;;;;;;18.30;9.10;;;;;;;;;;5113890;28;20072;-27
2023/11/12 03:06:07;;;;;;;17.53;9.77;;;;;;;;;;5113772;28;20106;-27
2023/11/12 03:08:33;;;;;;;18.27;9.63;;;;;;;;;;5113446;28;20253;-28
2023/11/12 03:10:58;;;;;;;16.63;10.07;;;;;;;;;;5113463;28;20019;-28
2023/11/12 03:13:25;;;;;;;16.08;9.75;;;;;;;;;;5113469;28;20759;-28
2023/11/12 03:15:51;;;;;;;15.68;9.52;;;;;;;;;;5114256;28;20019;-28
2023/11/12 03:18:16;;;;;;;19.48;10.27;;;;;;;;;;5115321;28;20023;-27
2023/11/12 03:20:42;;;;;;;17.70;9.90;;;;;;;;;;5118036;28;20024;-28
2023/11/12 03:23:07;;;;;;;17.10;9.93;;;;;;;;;;5117617;28;20310;-27
2023/11/12 03:25:32;;;;;;;17.15;10.10;;;;;;;;;;5117497;28;20722;-28
2023/11/12 03:27:57;;;;;;;16.67;9.98;;;;;;;;;;5117327;28;20069;-28
2023/11/12 03:30:22;;;;;;;14.87;9.37;;;;;;;;;;5117786;28;20016;-28
2023/11/12 03:32:48;;;;;;;18.77;9.73;;;;;;;;;;5117136;28;20589;-28
2023/11/12 03:35:13;;;;;;;15.77;9.73;;;;;;;;;;5117656;28;20341;-28
2023/11/12 03:37:38;;;;;;;18.73;10.30;;;;;;;;;;5117343;28;20257;-28
2023/11/12 03:40:04;;;;;;;22.70;9.60;;;;;;;;;;5117630;28;20054;-31
2023/11/12 03:42:29;;;;;;;18.30;10.40;;;;;;;;;;5117224;28;20679;-27
2023/11/12 03:44:56;;;;;;;16.33;10.00;;;;;;;;;;5116863;28;20051;-27
2023/11/12 03:47:22;;;;;;;17.85;9.85;;;;;;;;;;5117171;28;20099;-28
2023/11/12 03:49:47;;;;;;;30.30;10.38;;;;;;;;;;5116797;28;20441;-27
2023/11/12 03:52:13;;;;;;;15.55;9.20;;;;;;;;;;5117172;28;20040;-28
2023/11/12 03:54:38;;;;;;;17.75;10.00;;;;;;;;;;5116971;28;20076;-27
2023/11/12 03:57:03;;;;;;;14.95;9.60;;;;;;;;;;5117300;28;20023;-28
2023/11/12 03:59:29;;;;;;;18.05;10.23;;;;;;;;;;5116604;28;20026;-28
2023/11/12 04:01:54;;;;;;;17.40;10.50;;;;;;;;;;5116576;28;20020;-28
2023/11/12 04:04:19;;;;;;;16.00;10.53;;;;;;;;;;5116475;28;20281;-28
2023/11/12 04:06:44;;;;;;;16.83;10.52;;;;;;;;;;5116523;28;20254;-27
2023/11/12 04:09:09;;;;;;;18.55;10.57;;;;;;;;;;5116666;28;20020;-27
2023/11/12 04:11:36;;;;;;;16.63;10.05;;;;;;;;;;5116307;28;20418;-28
2023/11/12 04:14:02;;;;;;;16.70;10.35;;;;;;;;;;5116601;28;20374;-28
2023/11/12 04:16:27;;;;;;;16.88;10.23;;;;;;;;;;5116217;28;20012;-27
2023/11/12 04:18:53;;;;;;;16.58;9.98;;;;;;;;;;5116866;28;20016;-28
2023/11/12 04:21:18;;;;;;;18.58;10.38;;;;;;;;;;5116805;28;20022;-27
2023/11/12 04:23:46;;;;;;;17.45;10.20;;;;;;;;;;5116038;28;20016;-25
2023/11/12 04:26:11;;;;;;;16.33;10.10;;;;;;;;;;5116354;28;20030;-27
2023/11/12 04:28:36;;;;;;;23.27;10.98;;;;;;;;;;5116623;28;20016;-27
2023/11/12 04:31:02;;;;;;;15.63;10.32;;;;;;;;;;5115108;28;20084;-27
2023/11/12 04:33:29;;;;;;;16.85;10.05;;;;;;;;;;5116522;28;20020;-28
2023/11/12 04:35:54;;;;;;;17.30;10.43;;;;;;;;;;5116516;28;20022;-27
2023/11/12 04:38:20;;;;;;;16.47;10.20;;;;;;;;;;5115870;28;20099;-27
2023/11/12 04:40:48;;;;;;;18.17;10.40;;;;;;;;;;5116134;28;20310;-27
2023/11/12 04:43:14;;;;;;;16.05;10.18;;;;;;;;;;5116104;28;20095;-28
2023/11/12 04:45:39;;;;;;;18.90;10.43;;;;;;;;;;5116242;28;20502;-28
2023/11/12 04:48:05;;;;;;;17.92;10.88;;;;;;;;;;5097504;28;20016;-28
2023/11/12 04:50:30;;;;;;;19.27;10.90;;;;;;;;;;5115863;28;20515;-28
2023/11/12 04:52:55;;;;;;;16.40;10.10;;;;;;;;;;5097258;28;20043;-28
2023/11/12 04:55:20;;;;;;;17.67;10.57;;;;;;;;;;5115583;28;20268;-27
2023/11/12 04:57:45;;;;;;;18.15;10.38;;;;;;;;;;5116091;28;20027;-28
2023/11/12 05:00:11;;;;;;;16.63;10.30;;;;;;;;;;5116079;28;20145;-28
2023/11/12 05:02:36;;;;;;;16.77;10.15;;;;;;;;;;5116034;28;20739;-28
2023/11/12 05:05:01;;;;;;;19.00;10.90;;;;;;;;;;5115639;28;20019;-28
2023/11/12 05:07:27;;;;;;;22.02;11.20;;;;;;;;;;5115898;28;20123;-28
2023/11/12 05:09:52;;;;;;;21.83;10.80;;;;;;;;;;5115272;28;20094;-27
2023/11/12 05:12:17;;;;;;;17.20;10.77;;;;;;;;;;5115241;28;20477;-28
2023/11/12 05:14:43;;;;;;;21.73;11.00;;;;;;;;;;5115168;28;20296;-28
2023/11/12 05:17:08;;;;;;;20.40;10.68;;;;;;;;;;5115183;28;20132;-28
2023/11/12 05:19:33;;;;;;;18.00;10.77;;;;;;;;;;5115332;28;20024;-28
2023/11/12 05:21:59;;;;;;;20.97;11.30;;;;;;;;;;5115081;28;20016;-28
2023/11/12 05:24:24;;;;;;;17.75;11.00;;;;;;;;;;5115234;28;20316;-28
2023/11/12 05:26:49;;;;;;;16.83;11.00;;;;;;;;;;5114934;28;20008;-28
2023/11/12 05:29:14;;;;;;;16.65;10.65;;;;;;;;;;5115508;28;20284;-27
2023/11/12 05:31:39;;;;;;;19.43;11.00;;;;;;;;;;5115205;28;20019;-27
2023/11/12 05:34:05;;;;;;;22.00;11.07;;;;;;;;;;5115155;28;20322;-28
2023/11/12 05:36:30;;;;;;;17.92;10.52;;;;;;;;;;5115042;28;20481;-28
2023/11/12 05:38:55;;;;;;;14.70;10.23;;;;;;;;;;5114786;28;20015;-28
2023/11/12 05:41:20;;;;;;;19.65;10.65;;;;;;;;;;5114372;28;20277;-28
2023/11/12 05:43:46;;;;;;;19.67;11.05;;;;;;;;;;5114664;28;20381;-27
2023/11/12 05:46:11;;;;;;;22.27;11.45;;;;;;;;;;5114797;28;20031;-27
2023/11/12 05:48:36;;;;;;;24.42;11.98;;;;;;;;;;5115082;28;20435;-27
2023/11/12 05:51:02;;;;;;;18.00;11.30;;;;;;;;;;5114578;28;20371;-28
2023/11/12 05:53:27;;;;;;;19.10;11.02;;;;;;;;;;5114390;28;20360;-28
2023/11/12 05:55:52;;;;;;;22.10;11.35;;;;;;;;;;5115468;28;20015;-28
2023/11/12 05:58:18;;;;;;;18.80;11.33;;;;;;;;;;5114968;28;20080;-28
2023/11/12 06:00:43;;;;;;;20.73;11.45;;;;;;;;;;5114662;28;20732;-28
2023/11/12 06:03:08;;;;;;;20.83;11.70;;;;;;;;;;5114282;28;20107;-28
2023/11/12 06:05:33;;;;;;;19.93;11.90;;;;;;;;;;5114488;28;20659;-28
2023/11/12 06:07:58;;;;;;;18.55;12.55;;;;;;;;;;5114223;28;20257;-28
2023/11/12 06:10:23;;;;;;;19.83;11.37;;;;;;;;;;5094532;28;20022;-28
2023/11/12 06:12:49;;;;;;;22.23;11.80;;;;;;;;;;5112214;28;20253;-28
2023/11/12 06:15:14;;;;;;;21.17;12.00;;;;;;;;;;5113776;28;20352;-28
2023/11/12 06:17:39;;;;;;;23.93;11.57;;;;;;;;;;5114315;28;20257;-28
2023/11/12 06:20:06;;;;;;;21.85;12.20;;;;;;;;;;5114345;28;20269;-28
2023/11/12 06:22:32;;;;;;;20.88;12.50;;;;;;;;;;5114263;28;20058;-28
2023/11/12 06:24:57;;;;;;;19.95;12.35;;;;;;;;;;5114196;28;20051;-28
2023/11/12 06:27:22;;;;;;;21.85;12.63;;;;;;;;;;5114548;28;20016;-28
2023/11/12 06:29:49;;;;;;;19.63;12.70;;;;;;;;;;5111772;28;20024;-28
2023/11/12 06:32:14;;;;;;;19.90;11.80;;;;;;;;;;5111983;28;20258;-27
2023/11/12 06:34:39;;;;;;;18.23;12.40;;;;;;;;;;5111664;28;20024;-28
2023/11/12 06:37:05;;;;;;;21.50;12.20;;;;;;;;;;5111627;28;20261;-27
2023/11/12 06:39:30;;;;;;;21.05;12.07;;;;;;;;;;5111672;28;20261;-28
2023/11/12 06:41:55;;;;;;;19.80;12.25;;;;;;;;;;5111693;28;20020;-27
2023/11/12 06:44:21;;;;;;;21.03;12.93;;;;;;;;;;5112887;28;20485;-28
2023/11/12 06:46:46;;;;;;;19.00;12.37;;;;;;;;;;5113830;28;20290;-28
2023/11/12 06:49:11;;;;;;;21.07;12.13;;;;;;;;;;5114353;28;20249;-27
2023/11/12 06:51:36;;;;;;;19.63;11.90;;;;;;;;;;5113814;28;20653;-28
2023/11/12 06:54:03;;;;;;;21.67;12.00;;;;;;;;;;5116358;28;20282;-27
2023/11/12 06:56:31;;;;;;;17.40;12.15;;;;;;;;;;5117863;28;20398;-28
2023/11/12 06:58:57;;;;;;;21.17;12.35;;;;;;;;;;5118151;28;20019;-27
2023/11/12 07:01:23;;;;;;;17.60;11.93;;;;;;;;;;5117832;28;20018;-28
2023/11/12 07:03:48;;;;;;;21.38;12.23;;;;;;;;;;5118044;28;20766;-28
2023/11/12 07:06:13;;;;;;;21.70;12.77;;;;;;;;;;5117684;28;20020;-28
2023/11/12 07:08:38;;;;;;;20.80;11.93;;;;;;;;;;5117928;28;20259;-27
2023/11/12 07:11:03;;;;;;;19.13;12.07;;;;;;;;;;5117778;28;20279;-28
2023/11/12 07:13:28;;;;;;;19.05;12.13;;;;;;;;;;5117564;28;20012;-28
2023/11/12 07:15:55;;;;;;;18.80;11.67;;;;;;;;;;5118126;28;20023;-28
2023/11/12 07:18:20;;;;;;;18.73;11.82;;;;;;;;;;5117738;28;20668;-28
2023/11/12 07:20:45;;;;;;;19.60;11.07;;;;;;;;;;5117467;28;20058;-28
2023/11/12 07:23:10;;;;;;;20.60;11.95;;;;;;;;;;5117379;28;20019;-27
2023/11/12 07:25:35;;;;;;;19.35;11.75;;;;;;;;;;5117256;28;20107;-28
2023/11/12 07:28:00;;;;;;;19.27;11.63;;;;;;;;;;5117302;28;20401;-27
2023/11/12 07:30:26;;;;;;;20.77;11.60;;;;;;;;;;5117102;28;20273;-27
2023/11/12 07:32:51;;;;;;;18.80;11.38;;;;;;;;;;5117103;28;20253;-28
2023/11/12 07:35:16;;;;;;;16.15;11.02;;;;;;;;;;5117147;28;20016;-27
2023/11/12 07:37:42;;;;;;;16.33;11.45;;;;;;;;;;5117340;28;20018;-27
2023/11/12 07:40:10;;;;;;;17.85;11.75;;;;;;;;;;5117060;28;20055;-27
2023/11/12 07:42:36;;;;;;;18.92;11.40;;;;;;;;;;5117293;28;20028;-27
2023/11/12 07:45:01;;;;;;;17.77;11.07;;;;;;;;;;5117407;28;20461;-28
2023/11/12 07:47:26;;;;;;;17.47;11.33;;;;;;;;;;5117248;28;20076;-28
2023/11/12 07:49:51;;;;;;;20.10;10.98;;;;;;;;;;5117136;28;20348;-28
2023/11/12 07:52:16;;;;;;;21.93;12.10;;;;;;;;;;5116727;28;20050;-28
2023/11/12 07:54:42;;;;;;;18.08;11.27;;;;;;;;;;5117019;28;20253;-28
2023/11/12 07:57:07;;;;;;;18.90;11.43;;;;;;;;;;5117054;28;20024;-27
2023/11/12 07:59:32;;;;;;;20.07;12.17;;;;;;;;;;5116999;28;20043;-27
2023/11/12 08:01:57;;;;;;;22.43;11.83;;;;;;;;;;5116693;28;20348;-28
2023/11/12 08:04:22;;;;;;;18.53;11.40;;;;;;;;;;5116574;28;20277;-27
2023/11/12 08:06:48;;;;;;;17.90;11.27;;;;;;;;;;5116525;28;20269;-28
2023/11/12 08:09:14;;;;;;;22.38;12.00;;;;;;;;;;5117320;28;20700;-28
2023/11/12 08:11:40;;;;;;;17.95;11.15;;;;;;;;;;5116587;28;20012;-28
2023/11/12 08:14:05;;;;;;;18.40;10.95;;;;;;;;;;5116640;28;20019;-28
2023/11/12 08:16:30;;;;;;;19.17;11.50;;;;;;;;;;5116826;28;20008;-28
2023/11/12 08:18:58;;;;;;;18.10;11.30;;;;;;;;;;5116255;28;20601;-28
2023/11/12 08:21:23;;;;;;;17.75;11.40;;;;;;;;;;5116294;28;20615;-27
2023/11/12 08:23:48;;;;;;;19.63;11.47;;;;;;;;;;5116203;28;20019;-28
2023/11/12 08:26:14;;;;;;;20.53;10.83;;;;;;;;;;5116129;28;20269;-28
2023/11/12 08:28:40;;;;;;;21.45;11.35;;;;;;;;;;5116362;28;20272;-28
2023/11/12 08:31:05;;;;;;;16.27;10.85;;;;;;;;;;5116037;28;20016;-28
2023/11/12 08:33:31;;;;;;;20.55;10.88;;;;;;;;;;5116635;28;20015;-28
2023/11/12 08:35:56;;;;;;;15.07;10.57;;;;;;;;;;5115964;28;20116;-28
2023/11/12 08:38:22;;;;;;;16.00;10.10;;;;;;;;;;5116274;28;20098;-28
2023/11/12 08:40:47;;;;;;;17.75;10.10;;;;;;;;;;5115842;28;20268;-27
2023/11/12 08:43:14;;;;;;;18.20;10.63;;;;;;;;;;5114386;28;20026;-28
2023/11/12 08:45:39;;;;;;;23.63;11.07;;;;;;;;;;5116232;28;20817;-28
2023/11/12 08:48:05;;;;;;;18.93;10.87;;;;;;;;;;5116218;28;20016;-28
2023/11/12 08:50:30;;;;;;;19.93;10.70;;;;;;;;;;5115728;28;20245;-28
2023/11/12 08:52:56;;;;;;;16.47;10.20;;;;;;;;;;5115559;28;20317;-28
2023/11/12 08:55:22;;;;;;;19.08;10.38;;;;;;;;;;5115708;28;20257;-28
2023/11/12 08:57:47;;;;;;;17.63;10.80;;;;;;;;;;5116103;28;20481;-28
2023/11/12 09:00:13;;;;;;;18.20;11.13;;;;;;;;;;5114041;28;20459;-28
2023/11/12 09:02:38;;;;;;;21.00;10.10;;;;;;;;;;5113618;28;20023;-28
2023/11/12 09:05:04;;;;;;;19.30;10.23;;;;;;;;;;5113388;28;20028;-28
2023/11/12 09:07:29;;;;;;;15.70;9.95;;;;;;;;;;5113827;28;20257;-28
2023/11/12 09:09:55;;;;;;;15.63;10.00;;;;;;;;;;5113822;28;20023;-28
2023/11/12 09:12:20;;;;;;;16.20;9.95;;;;;;;;;;5113663;28;20043;-27
2023/11/12 09:14:45;;;;;;;14.60;10.00;;;;;;;;;;5114488;28;20355;-28
2023/11/12 09:17:11;;;;;;;23.25;10.50;;;;;;;;;;5114491;28;20272;-28
2023/11/12 09:19:36;;;;;;;18.45;10.18;;;;;;;;;;5115384;28;20028;-28
2023/11/12 09:22:01;;;;;;;13.80;9.33;;;;;;;;;;5115096;28;20019;-28
2023/11/12 09:24:27;;;;;;;17.40;9.97;;;;;;;;;;5115502;28;20295;-28
2023/11/12 09:26:52;;;;;;;26.73;10.20;;;;;;;;;;5115510;28;20646;-28
2023/11/12 09:29:18;;;;;;;18.23;10.52;;;;;;;;;;5097023;28;20024;-28
2023/11/12 09:31:43;;;;;;;15.75;9.68;;;;;;;;;;5115162;28;20411;-28
2023/11/12 09:34:09;;;;;;;17.33;10.65;;;;;;;;;;5115164;28;20020;-28
2023/11/12 09:36:34;;;;;;;19.05;10.25;;;;;;;;;;5115078;28;20019;-28
2023/11/12 09:39:00;;;;;;;16.27;9.45;;;;;;;;;;5115034;28;20022;-28
2023/11/12 09:41:26;;;;;;;15.35;9.30;;;;;;;;;;5114658;28;20023;-28
2023/11/12 09:43:54;;;;;;;17.20;9.40;;;;;;;;;;5114658;28;20016;-28
2023/11/12 09:46:19;;;;;;;11.98;8.50;;;;;;;;;;5115055;28;20027;-28
2023/11/12 09:48:45;;;;;;;13.43;8.10;;;;;;;;;;5115143;28;20012;-28
2023/11/12 09:51:11;;;;;;;10.98;7.15;;;;;;;;;;5115058;28;20020;-28
2023/11/12 09:53:36;;;;;;;11.30;7.03;;;;;;;;;;5114535;28;20051;-28
2023/11/12 09:56:08;;;;;;;13.82;7.32;;;;;;;;;;5114681;28;20019;-28
2023/11/12 09:58:34;;;;;;;17.00;9.35;;;;;;;;;;5114378;28;20023;-28
2023/11/12 10:01:00;;;;;;;10.25;7.28;;;;;;;;;;5114572;28;20023;-28
2023/11/12 10:03:25;;;;;;;9.70;6.90;;;;;;;;;;5114281;28;20072;-28
2023/11/12 10:05:50;;;;;;;10.13;7.40;;;;;;;;;;5114745;28;20015;-29
2023/11/12 10:08:17;;;;;;;12.63;7.78;;;;;;;;;;5114828;28;20022;-29
2023/11/12 10:10:42;;;;;;;12.75;7.18;;;;;;;;;;5114392;28;20473;-29
2023/11/12 10:13:09;;;;;;;15.02;8.07;;;;;;;;;;5114385;28;20024;-29
2023/11/12 10:15:34;;;;;;;12.35;8.27;;;;;;;;;;5114122;28;20023;-28
2023/11/12 10:18:00;;;;;;;12.18;8.02;;;;;;;;;;5114376;28;20102;-29
2023/11/12 10:20:26;;;;;;;11.18;8.23;;;;;;;;;;5114074;28;20462;-28
2023/11/12 10:22:52;;;;;;;13.60;8.50;;;;;;;;;;5113994;28;20425;-28
2023/11/12 10:25:35;;;;;;;13.68;8.30;;;;;;;;;;5114056;28;20051;-29
2023/11/12 10:28:01;;;;;;;13.60;8.35;;;;;;;;;;5114004;28;20031;-28
2023/11/12 10:30:26;;;;;;;13.10;8.10;;;;;;;;;;5114003;28;20011;-28
2023/11/12 10:32:51;;;;;;;12.00;7.80;;;;;;;;;;5114236;28;20012;-28
2023/11/12 10:35:28;;;;;;;19.23;13.00;;;;;;;;;;5113863;28;20497;-28
2023/11/12 10:37:55;;;;;;;15.65;8.85;;;;;;;;;;5113883;28;20732;-27
2023/11/12 10:40:21;;;;;;;15.80;9.88;;;;;;;;;;5114175;28;20026;-27
2023/11/12 10:42:46;;;;;;;37.20;17.43;;;;;;;;;;5113756;28;20450;-26
2023/11/12 10:45:12;;;;;;;27.07;13.73;;;;;;;;;;5114362;28;20016;-26
2023/11/12 10:47:38;;;;;;;36.63;24.77;;;;;;;;;;5113847;28;20102;-26
2023/11/12 10:50:04;;;;;;;16.77;10.43;;;;;;;;;;5113990;28;20051;-28
2023/11/12 10:52:30;;;;;;;17.95;11.20;;;;;;;;;;5113779;28;20047;-27
2023/11/12 10:54:58;;;;;;;18.85;11.10;;;;;;;;;;5113661;28;20489;-26
2023/11/12 10:57:23;;;;;;;19.17;11.18;;;;;;;;;;5114221;28;20024;-26
2023/11/12 10:59:49;;;;;;;17.55;10.18;;;;;;;;;;5113648;28;20111;-27
2023/11/12 11:02:18;;;;;;;17.67;9.63;;;;;;;;;;5113914;28;20024;-27
2023/11/12 11:04:47;;;;;;;12.70;8.68;;;;;;;;;;5113789;28;20099;-27
2023/11/12 11:07:15;;;;;;;15.52;10.10;;;;;;;;;;5113777;28;20153;-27
2023/11/12 11:09:41;;;;;;;13.93;9.02;;;;;;;;;;5114091;28;20054;-27
2023/11/12 11:12:07;;;;;;;13.95;8.65;;;;;;;;;;5113518;28;20101;-27
2023/11/12 11:14:34;;;;;;;12.18;8.35;;;;;;;;;;5114601;28;20034;-27
2023/11/12 11:16:59;;;;;;;11.18;7.90;;;;;;;;;;5113840;28;20031;-27
2023/11/12 11:19:43;;;;;;;9.63;7.10;;;;;;;;;;5114294;28;20024;-28
2023/11/12 11:22:27;;;;;;;11.85;7.95;;;;;;;;;;5114331;28;20416;-27
2023/11/12 11:24:53;;;;;;;14.13;7.90;;;;;;;;;;5113613;28;20043;-28
2023/11/12 11:27:20;;;;;;;14.30;9.00;;;;;;;;;;5113718;28;20458;-27
2023/11/12 11:30:06;;;;;;;13.77;9.35;;;;;;;;;;5113651;28;20023;-27
2023/11/12 11:32:31;;;;;;;16.20;9.80;;;;;;;;;;5113664;28;20024;-27
2023/11/12 11:34:56;;;;;;;16.52;10.57;;;;;;;;;;5113345;28;20481;-27
2023/11/12 11:37:22;;;;;;;16.23;11.10;;;;;;;;;;5113258;28;20096;-27
2023/11/12 11:39:48;;;;;;;17.60;11.05;;;;;;;;;;5115367;28;20024;-28
2023/11/12 11:42:13;;;;;;;16.77;10.97;;;;;;;;;;5117591;28;20027;-28
2023/11/12 11:44:41;;;;;;;18.38;10.63;;;;;;;;;;5117190;28;20027;-28
2023/11/12 11:47:10;;;;;;;16.98;10.98;;;;;;;;;;5117170;28;20016;-28
2023/11/12 11:49:36;;;;;;;20.40;11.77;;;;;;;;;;5116862;28;20032;-28
2023/11/12 11:52:01;;;;;;;18.33;11.05;;;;;;;;;;5116917;28;20026;-28
2023/11/12 11:54:27;;;;;;;19.00;11.63;;;;;;;;;;5116733;28;20030;-28
2023/11/12 11:56:52;;;;;;;18.88;11.77;;;;;;;;;;5116800;28;20062;-28
2023/11/12 11:59:19;;;;;;;28.95;12.65;;;;;;;;;;5116967;28;20135;-28
2023/11/12 12:01:46;;;;;;;19.60;12.00;;;;;;;;;;5116589;28;20427;-28
2023/11/12 12:04:13;;;;;;;17.48;11.98;;;;;;;;;;5116484;28;20030;-28
2023/11/12 12:06:42;;;;;;;19.20;12.48;;;;;;;;;;5116561;28;20027;-27
2023/11/12 12:09:13;;;;;;;18.42;11.68;;;;;;;;;;5116488;28;20034;-27
2023/11/12 12:11:38;;;;;;;25.20;11.68;;;;;;;;;;5116638;28;20047;-27
2023/11/12 12:14:04;;;;;;;22.10;12.10;;;;;;;;;;5116489;28;20054;-27
2023/11/12 12:16:30;;;;;;;24.20;12.00;;;;;;;;;;5116345;28;20026;-30
2023/11/12 12:18:56;;;;;;;21.95;11.82;;;;;;;;;;5116311;28;20051;-27
2023/11/12 12:21:21;;;;;;;22.20;12.20;;;;;;;;;;5116281;28;20019;-27
2023/11/12 12:23:47;;;;;;;20.25;11.82;;;;;;;;;;5116803;28;20042;-35
2023/11/12 12:26:13;;;;;;;25.05;12.50;;;;;;;;;;5116685;28;20430;-28
2023/11/12 12:28:38;;;;;;;25.33;11.90;;;;;;;;;;5116164;28;20374;-27
2023/11/12 12:31:03;;;;;;;22.33;12.18;;;;;;;;;;5116383;28;20023;-27
2023/11/12 12:33:30;;;;;;;18.65;10.88;;;;;;;;;;5116046;28;20347;-27
2023/11/12 12:35:59;;;;;;;21.77;11.57;;;;;;;;;;5116208;28;20049;-27
2023/11/12 12:38:24;;;;;;;22.80;10.88;;;;;;;;;;5116220;28;20098;-28
2023/11/12 12:40:52;;;;;;;22.13;11.90;;;;;;;;;;5115892;28;20054;-27
2023/11/12 12:43:18;;;;;;;26.48;13.27;;;;;;;;;;5115989;28;20110;-27
2023/11/12 12:45:56;;;;;;;21.20;12.40;;;;;;;;;;5115804;28;20148;-28
2023/11/12 12:48:23;;;;;;;22.77;13.18;;;;;;;;;;5116574;28;20281;-27
2023/11/12 12:50:56;;;;;;;26.00;13.20;;;;;;;;;;5114931;28;20019;-27
2023/11/12 12:53:23;;;;;;;22.50;13.05;;;;;;;;;;5115521;28;20046;-27
2023/11/12 12:55:49;;;;;;;21.98;13.73;;;;;;;;;;5115573;28;20039;-27
2023/11/12 12:58:14;;;;;;;21.35;13.27;;;;;;;;;;5115812;28;20023;-27
2023/11/12 13:00:40;;;;;;;20.45;13.32;;;;;;;;;;5115571;28;20055;-27
2023/11/12 13:03:20;;;;;;;21.52;13.98;;;;;;;;;;5115690;28;20015;-27
2023/11/12 13:05:46;;;;;;;21.27;13.45;;;;;;;;;;5115639;28;20020;-27
2023/11/12 13:08:11;;;;;;;21.67;13.73;;;;;;;;;;5115327;28;20347;-27
2023/11/12 13:10:37;;;;;;;25.98;14.35;;;;;;;;;;5115301;28;20015;-27
2023/11/12 13:13:02;;;;;;;22.13;13.57;;;;;;;;;;5115401;28;20012;-27
2023/11/12 13:15:27;;;;;;;22.63;13.20;;;;;;;;;;5115158;28;20716;-27
2023/11/12 13:17:53;;;;;;;22.55;14.02;;;;;;;;;;5115436;28;20020;-27
2023/11/12 13:20:25;;;;;;;22.13;13.32;;;;;;;;;;5115160;28;20032;-27
2023/11/12 13:22:51;;;;;;;24.90;13.45;;;;;;;;;;5115395;28;20026;-28
2023/11/12 13:25:16;;;;;;;21.23;13.00;;;;;;;;;;5115159;28;20054;-27
2023/11/12 13:27:45;;;;;;;23.13;13.13;;;;;;;;;;5114956;28;20059;-27
2023/11/12 13:30:11;;;;;;;22.83;13.52;;;;;;;;;;5115197;28;20046;-27
2023/11/12 13:32:40;;;;;;;21.38;13.65;;;;;;;;;;5114907;28;20436;-27
2023/11/12 13:35:06;;;;;;;21.88;12.93;;;;;;;;;;5115121;28;20020;-27
2023/11/12 13:37:34;;;;;;;23.35;12.27;;;;;;;;;;5114716;28;20047;-27
2023/11/12 13:39:59;;;;;;;27.52;14.07;;;;;;;;;;5114949;28;20019;-27
2023/11/12 13:42:27;;;;;;;23.93;13.63;;;;;;;;;;5114727;28;20424;-27
2023/11/12 13:44:53;;;;;;;23.60;13.25;;;;;;;;;;5114041;28;20296;-28
2023/11/12 13:47:18;;;;;;;27.85;13.82;;;;;;;;;;5114059;28;20016;-27
2023/11/12 13:49:43;;;;;;;23.90;13.70;;;;;;;;;;5114676;28;20020;-27
2023/11/12 13:52:13;;;;;;;22.77;13.05;;;;;;;;;;5114490;28;20289;-27
2023/11/12 13:54:38;;;;;;;25.23;13.75;;;;;;;;;;5114754;28;20580;-27
2023/11/12 13:57:04;;;;;;;28.87;14.40;;;;;;;;;;5115011;28;20065;-28
2023/11/12 13:59:29;;;;;;;24.88;13.90;;;;;;;;;;5114620;28;20318;-27
2023/11/12 14:01:54;;;;;;;25.08;14.18;;;;;;;;;;5114354;28;20095;-27
2023/11/12 14:04:21;;;;;;;23.07;12.83;;;;;;;;;;5114716;28;20020;-27
2023/11/12 14:06:48;;;;;;;21.25;12.55;;;;;;;;;;5114255;28;20328;-27
2023/11/12 14:09:13;;;;;;;20.42;11.98;;;;;;;;;;5114546;28;20050;-28
2023/11/12 14:11:41;;;;;;;22.25;11.65;;;;;;;;;;5114330;28;20436;-28
2023/11/12 14:14:07;;;;;;;19.75;12.32;;;;;;;;;;5114674;28;20054;-28